createdAt,value
2018-04-11T00:00:13.367Z,4.80
2018-04-11T00:02:41.627Z,4.67
2018-04-11T00:05:09.763Z,4.90
2018-04-11T00:07:37.914Z,4.90
2018-04-11T00:10:06.066Z,5.20
2018-04-11T00:12:34.163Z,4.97
2018-04-11T00:15:02.295Z,4.83
2018-04-11T00:17:31.165Z,4.77
2018-04-11T00:19:59.284Z,5.00
2018-04-11T00:22:27.580Z,5.10
2018-04-11T00:24:57.049Z,5.23
2018-04-11T00:27:25.169Z,5.00
2018-04-11T00:29:53.296Z,5.20
2018-04-11T00:32:21.578Z,5.40
2018-04-11T00:34:49.913Z,5.17
2018-04-11T00:37:18.044Z,5.20
2018-04-11T00:39:46.240Z,5.23
2018-04-11T00:42:14.456Z,5.17
2018-04-11T00:44:42.573Z,5.07
2018-04-11T00:47:10.762Z,5.50
2018-04-11T00:49:38.948Z,5.03
2018-04-11T00:52:07.066Z,5.50
2018-04-11T00:54:35.232Z,5.43
2018-04-11T00:57:03.384Z,5.20
2018-04-11T00:59:32.482Z,6.27
2018-04-11T01:02:01.372Z,5.10
2018-04-11T01:04:30.257Z,5.73
2018-04-11T01:06:59.805Z,5.40
2018-04-11T01:09:28.003Z,5.60
2018-04-11T01:11:56.104Z,6.53
2018-04-11T01:14:24.221Z,6.10
2018-04-11T01:16:52.379Z,5.47
2018-04-11T01:19:20.513Z,7.10
2018-04-11T01:21:50.131Z,6.27
2018-04-11T01:24:18.267Z,5.37
2018-04-11T01:26:53.541Z,5.63
2018-04-11T01:29:21.682Z,6.10
2018-04-11T01:31:49.798Z,6.50
2018-04-11T01:34:18.708Z,6.20
2018-04-11T01:36:46.875Z,7.20
2018-04-11T01:39:15.766Z,7.43
2018-04-11T01:41:44.721Z,7.23
2018-04-11T01:44:12.867Z,6.73
2018-04-11T01:46:41.834Z,7.73
2018-04-11T01:49:09.935Z,7.37
2018-04-11T01:51:38.082Z,8.23
2018-04-11T01:54:07.420Z,8.80
2018-04-11T01:56:35.618Z,7.47
2018-04-11T01:59:04.559Z,7.93
2018-04-11T02:01:32.687Z,9.03
2018-04-11T02:04:01.644Z,8.90
2018-04-11T02:06:29.839Z,9.17
2018-04-11T02:08:59.027Z,8.57
2018-04-11T02:11:27.187Z,9.07
2018-04-11T02:13:55.431Z,10.70
2018-04-11T02:16:23.613Z,9.93
2018-04-11T02:18:51.835Z,10.83
2018-04-11T02:21:20.166Z,9.87
2018-04-11T02:23:48.305Z,10.20
2018-04-11T02:26:16.566Z,12.07
2018-04-11T02:28:49.040Z,11.40
2018-04-11T02:31:17.141Z,11.80
2018-04-11T02:33:46.234Z,11.57
2018-04-11T02:36:24.748Z,11.50
2018-04-11T02:38:53.900Z,11.47
2018-04-11T02:41:22.025Z,11.13
2018-04-11T02:43:53.016Z,11.87
2018-04-11T02:46:23.730Z,12.53
2018-04-11T02:48:57.530Z,12.57
2018-04-11T02:51:28.583Z,12.43
2018-04-11T02:54:01.893Z,12.23
2018-04-11T02:56:30.901Z,14.60
2018-04-11T02:59:04.030Z,12.97
2018-04-11T03:01:32.826Z,13.87
2018-04-11T03:04:04.503Z,12.63
2018-04-11T03:06:32.962Z,13.87
2018-04-11T03:09:01.125Z,13.37
2018-04-11T03:11:29.294Z,12.03
2018-04-11T03:13:58.180Z,12.03
2018-04-11T03:16:26.360Z,12.37
2018-04-11T03:18:54.766Z,12.23
2018-04-11T03:21:22.931Z,12.83
2018-04-11T03:23:51.198Z,13.03
2018-04-11T03:26:19.494Z,12.60
2018-04-11T03:28:47.691Z,13.43
2018-04-11T03:31:15.801Z,15.23
2018-04-11T03:33:44.150Z,17.00
2018-04-11T03:36:12.254Z,18.87
2018-04-11T03:38:41.274Z,19.23
2018-04-11T03:41:09.506Z,17.30
2018-04-11T03:43:37.847Z,18.27
2018-04-11T03:46:05.938Z,16.17
2018-04-11T03:48:34.085Z,17.37
2018-04-11T03:51:02.229Z,18.23
2018-04-11T03:53:31.103Z,18.50
2018-04-11T03:56:00.016Z,17.53
2018-04-11T03:58:28.158Z,16.37
2018-04-11T04:00:56.279Z,17.87
2018-04-11T04:03:24.419Z,25.70
2018-04-11T04:05:52.543Z,20.27
2018-04-11T04:08:20.686Z,18.53
2018-04-11T04:10:48.889Z,19.10
2018-04-11T04:13:17.030Z,20.30
2018-04-11T04:15:57.366Z,18.17
2018-04-11T04:18:51.995Z,17.90
2018-04-11T04:21:20.142Z,18.17
2018-04-11T04:23:49.062Z,18.03
2018-04-11T04:26:17.359Z,18.03
2018-04-11T04:28:45.544Z,18.93
2018-04-11T04:31:13.852Z,21.08
2018-04-11T04:33:42.014Z,19.77
2018-04-11T04:36:10.263Z,19.93
2018-04-11T04:38:38.587Z,20.47
2018-04-11T04:41:07.466Z,19.17
2018-04-11T04:43:36.378Z,19.87
2018-04-11T04:46:05.290Z,17.83
2018-04-11T04:48:34.234Z,17.53
2018-04-11T04:51:02.419Z,18.00
2018-04-11T04:53:30.679Z,18.23
2018-04-11T04:55:58.958Z,18.13
2018-04-11T04:58:27.101Z,18.87
2018-04-11T05:00:55.207Z,19.53
2018-04-11T05:03:23.336Z,20.07
2018-04-11T05:05:51.462Z,17.53
2018-04-11T05:08:20.368Z,19.05
2018-04-11T05:10:48.718Z,17.30
2018-04-11T05:13:16.888Z,16.97
2018-04-11T05:15:45.016Z,14.67
2018-04-11T05:18:13.137Z,15.87
2018-04-11T05:20:42.797Z,17.27
2018-04-11T05:23:11.084Z,14.70
2018-04-11T05:25:39.305Z,15.83
2018-04-11T05:28:08.284Z,15.23
2018-04-11T05:30:37.572Z,16.67
2018-04-11T05:33:05.889Z,14.93
2018-04-11T05:35:34.810Z,16.77
2018-04-11T05:38:02.948Z,15.60
2018-04-11T05:40:31.846Z,15.43
2018-04-11T05:43:00.901Z,15.67
2018-04-11T05:45:29.262Z,16.93
2018-04-11T05:47:57.427Z,15.60
2018-04-11T05:50:26.320Z,15.73
2018-04-11T05:52:54.452Z,15.93
2018-04-11T05:55:23.343Z,15.68
2018-04-11T05:57:52.370Z,13.43
2018-04-11T06:00:20.606Z,13.90
2018-04-11T06:02:49.489Z,14.47
2018-04-11T06:05:17.648Z,14.00
2018-04-11T06:07:46.363Z,14.23
2018-04-11T06:10:15.351Z,14.97
2018-04-11T06:12:44.388Z,14.33
2018-04-11T06:15:12.598Z,14.13
2018-04-11T06:17:40.879Z,13.83
2018-04-11T06:20:09.036Z,13.47
2018-04-11T06:22:37.147Z,12.80
2018-04-11T06:25:06.040Z,12.70
2018-04-11T06:27:35.084Z,12.77
2018-04-11T06:30:03.460Z,12.53
2018-04-11T06:32:31.804Z,11.97
2018-04-11T06:34:59.965Z,12.27
2018-04-11T06:37:28.840Z,10.37
2018-04-11T06:39:56.955Z,9.47
2018-04-11T06:42:25.580Z,9.97
2018-04-11T06:44:53.763Z,9.63
2018-04-11T06:47:22.034Z,9.60
2018-04-11T06:49:50.976Z,8.80
2018-04-11T06:52:19.203Z,8.87
2018-04-11T06:54:48.012Z,8.53
2018-04-11T06:57:16.892Z,8.03
2018-04-11T06:59:45.877Z,8.40
2018-04-11T07:02:13.986Z,8.17
2018-04-11T07:04:42.103Z,8.90
2018-04-11T07:07:10.207Z,8.67
2018-04-11T07:09:39.274Z,8.67
2018-04-11T07:12:07.451Z,8.50
2018-04-11T07:14:35.733Z,9.77
2018-04-11T07:17:04.020Z,8.93
2018-04-11T07:19:32.241Z,8.50
2018-04-11T07:22:00.367Z,9.00
2018-04-11T07:24:28.502Z,11.43
2018-04-11T07:26:56.647Z,8.57
2018-04-11T07:29:24.931Z,8.53
2018-04-11T07:31:53.778Z,9.73
2018-04-11T07:34:21.925Z,9.30
2018-04-11T07:36:50.021Z,8.17
2018-04-11T07:39:18.914Z,7.93
2018-04-11T07:41:47.057Z,10.47
2018-04-11T07:44:15.180Z,10.23
2018-04-11T07:46:44.061Z,7.97
2018-04-11T07:49:12.955Z,7.53
2018-04-11T07:51:41.830Z,7.10
2018-04-11T07:54:09.947Z,6.80
2018-04-11T07:56:38.090Z,7.47
2018-04-11T07:59:07.801Z,7.03
2018-04-11T08:01:36.702Z,7.17
2018-04-11T08:04:05.607Z,6.37
2018-04-11T08:06:33.765Z,6.57
2018-04-11T08:09:02.659Z,6.57
2018-04-11T08:11:31.750Z,7.13
2018-04-11T08:14:00.623Z,6.53
2018-04-11T08:16:28.763Z,6.20
2018-04-11T08:18:57.760Z,5.77
2018-04-11T08:21:25.847Z,5.83
2018-04-11T08:23:53.477Z,6.57
2018-04-11T08:26:22.471Z,6.67
2018-04-11T08:28:50.578Z,6.10
2018-04-11T08:31:18.895Z,5.27
2018-04-11T08:33:47.025Z,7.07
2018-04-11T08:36:15.126Z,6.97
2018-04-11T08:38:43.996Z,5.80
2018-04-11T08:41:12.317Z,5.90
2018-04-11T08:43:40.489Z,7.43
2018-04-11T08:46:08.659Z,6.07
2018-04-11T08:48:37.605Z,5.73
2018-04-11T08:51:05.712Z,7.60
2018-04-11T08:53:34.637Z,6.60
2018-04-11T08:56:04.275Z,6.33
2018-04-11T08:58:32.453Z,6.23
2018-04-11T09:01:00.756Z,5.63
2018-04-11T09:03:29.610Z,13.93
2018-04-11T09:05:57.718Z,20.60
2018-04-11T09:08:26.718Z,7.17
2018-04-11T09:10:54.875Z,5.20
2018-04-11T09:13:23.099Z,8.37
2018-04-11T09:15:51.206Z,6.87
2018-04-11T09:18:19.408Z,6.83
2018-04-11T09:20:47.555Z,5.13
2018-04-11T09:23:15.895Z,6.40
2018-04-11T09:25:44.151Z,4.60
2018-04-11T09:28:12.263Z,6.53
2018-04-11T09:30:41.312Z,5.70
2018-04-11T09:33:09.482Z,7.23
2018-04-11T09:35:38.342Z,5.10
2018-04-11T09:38:06.450Z,4.97
2018-04-11T09:40:35.288Z,5.80
2018-04-11T09:43:03.512Z,6.10
2018-04-11T09:45:32.399Z,4.70
2018-04-11T09:48:01.431Z,5.77
2018-04-11T09:50:33.657Z,5.00
2018-04-11T09:53:01.926Z,5.43
2018-04-11T09:55:30.054Z,4.23
2018-04-11T09:57:58.164Z,5.97
2018-04-11T10:00:27.218Z,4.97
2018-04-11T10:03:01.056Z,7.03
2018-04-11T10:05:29.199Z,7.70
2018-04-11T10:07:57.322Z,4.67
2018-04-11T10:10:26.221Z,6.40
2018-04-11T10:12:55.225Z,4.67
2018-04-11T10:15:23.326Z,7.00
2018-04-11T10:17:51.540Z,4.60
2018-04-11T10:20:20.709Z,5.83
2018-04-11T10:22:48.890Z,5.40
2018-04-11T10:25:17.151Z,4.83
2018-04-11T10:27:45.329Z,4.50
2018-04-11T10:30:13.446Z,6.40
2018-04-11T10:32:42.313Z,6.33
2018-04-11T10:35:11.282Z,7.60
2018-04-11T10:37:39.388Z,5.53
2018-04-11T10:40:07.519Z,6.07
2018-04-11T10:42:36.581Z,8.37
2018-04-11T10:45:04.682Z,6.47
2018-04-11T10:47:33.087Z,5.10
2018-04-11T10:50:01.341Z,4.90
2018-04-11T10:52:29.554Z,6.90
2018-04-11T10:54:57.753Z,5.17
2018-04-11T10:57:26.641Z,8.20
2018-04-11T10:59:55.503Z,4.40
2018-04-11T11:02:23.703Z,5.77
2018-04-11T11:04:52.671Z,4.83
2018-04-11T11:07:20.783Z,4.43
2018-04-11T11:09:48.880Z,6.23
2018-04-11T11:12:17.013Z,4.60
2018-04-11T11:14:45.871Z,5.67
2018-04-11T11:17:14.164Z,11.40
2018-04-11T11:19:55.364Z,10.07
2018-04-11T11:22:24.216Z,7.93
2018-04-11T11:24:52.476Z,10.67
2018-04-11T11:27:20.671Z,15.57
2018-04-11T11:29:48.792Z,8.10
2018-04-11T11:32:17.028Z,6.00
2018-04-11T11:34:45.155Z,6.00
2018-04-11T11:37:13.274Z,7.13
2018-04-11T11:39:41.377Z,10.60
2018-04-11T11:42:09.549Z,12.77
2018-04-11T11:44:37.822Z,6.10
2018-04-11T11:47:06.871Z,6.53
2018-04-11T11:49:35.100Z,6.73
2018-04-11T11:52:03.241Z,6.07
2018-04-11T11:54:31.430Z,6.27
2018-04-11T11:57:00.441Z,5.80
2018-04-11T11:59:28.539Z,5.00
2018-04-11T12:01:56.786Z,5.57
2018-04-11T12:04:24.963Z,11.83
2018-04-11T12:06:53.055Z,7.33
2018-04-11T12:09:21.171Z,4.70
2018-04-11T12:11:49.384Z,6.83
2018-04-11T12:14:18.242Z,6.67
2018-04-11T12:16:46.374Z,8.33
2018-04-11T12:19:14.484Z,5.30
2018-04-11T12:21:42.619Z,15.03
2018-04-11T12:24:10.718Z,6.83
2018-04-11T12:26:39.555Z,5.80
2018-04-11T12:29:07.659Z,5.50
2018-04-11T12:31:35.765Z,5.87
2018-04-11T12:34:03.914Z,6.70
2018-04-11T12:36:32.048Z,5.77
2018-04-11T12:39:00.142Z,7.53
2018-04-11T12:41:28.268Z,6.50
2018-04-11T12:43:57.173Z,6.27
2018-04-11T12:46:25.286Z,6.50
2018-04-11T12:48:53.424Z,6.43
2018-04-11T12:51:21.532Z,7.57
2018-04-11T12:53:49.635Z,8.10
2018-04-11T12:56:17.838Z,5.90
2018-04-11T12:58:46.087Z,5.43
2018-04-11T13:01:14.290Z,6.83
2018-04-11T13:03:42.632Z,5.23
2018-04-11T13:06:11.534Z,5.47
2018-04-11T13:08:40.030Z,4.80
2018-04-11T13:11:09.026Z,5.23
2018-04-11T13:13:37.897Z,5.67
2018-04-11T13:16:06.158Z,7.00
2018-04-11T13:18:34.281Z,4.90
2018-04-11T13:21:02.398Z,5.03
2018-04-11T13:23:30.493Z,4.30
2018-04-11T13:25:59.373Z,5.00
2018-04-11T13:28:27.552Z,6.63
2018-04-11T13:30:57.221Z,5.90
2018-04-11T13:33:26.180Z,3.47
2018-04-11T13:35:54.401Z,2.90
2018-04-11T13:38:22.574Z,5.03
2018-04-11T13:40:50.719Z,7.67
2018-04-11T13:43:18.816Z,4.40
2018-04-11T13:45:46.918Z,3.37
2018-04-11T13:48:15.057Z,2.67
2018-04-11T13:50:43.263Z,4.07
2018-04-11T13:53:11.887Z,4.50
2018-04-11T13:55:40.041Z,5.77
2018-04-11T13:58:08.912Z,4.27
2018-04-11T14:00:37.191Z,6.27
2018-04-11T14:03:06.853Z,4.87
2018-04-11T14:05:34.959Z,4.87
2018-04-11T14:08:03.090Z,6.67
2018-04-11T14:10:31.227Z,8.20
2018-04-11T14:13:00.143Z,6.87
2018-04-11T14:15:28.284Z,5.63
2018-04-11T14:17:57.010Z,6.77
2018-04-11T14:20:25.247Z,4.97
2018-04-11T14:22:53.383Z,4.50
2018-04-11T14:25:21.631Z,4.37
2018-04-11T14:27:50.483Z,4.93
2018-04-11T14:30:18.592Z,3.97
2018-04-11T14:32:46.732Z,4.67
2018-04-11T14:35:14.835Z,5.10
2018-04-11T14:37:42.940Z,3.90
2018-04-11T14:40:11.189Z,3.70
2018-04-11T14:42:39.364Z,4.70
2018-04-11T14:45:07.512Z,4.00
2018-04-11T14:47:36.417Z,6.63
2018-04-11T14:50:04.522Z,3.53
2018-04-11T14:52:32.818Z,3.83
2018-04-11T14:55:00.947Z,3.30
2018-04-11T14:57:29.189Z,3.37
2018-04-11T14:59:58.279Z,4.53
2018-04-11T15:02:27.306Z,3.90
2018-04-11T15:04:55.437Z,3.20
2018-04-11T15:07:23.727Z,8.07
2018-04-11T15:09:51.929Z,3.30
2018-04-11T15:12:20.810Z,3.67
2018-04-11T15:14:49.679Z,3.53
2018-04-11T15:17:17.800Z,2.87
2018-04-11T15:19:46.226Z,3.93
2018-04-11T15:22:14.338Z,4.17
2018-04-11T15:24:42.616Z,3.27
2018-04-11T15:27:10.846Z,3.10
2018-04-11T15:29:39.080Z,3.13
2018-04-11T15:32:08.167Z,2.80
2018-04-11T15:34:36.405Z,4.50
2018-04-11T15:37:04.655Z,2.90
2018-04-11T15:39:32.975Z,2.97
2018-04-11T15:42:01.858Z,3.67
2018-04-11T15:44:29.953Z,2.70
2018-04-11T15:46:58.201Z,4.40
2018-04-11T15:49:27.075Z,2.70
2018-04-11T15:51:55.357Z,3.43
2018-04-11T15:54:23.477Z,3.43
2018-04-11T15:56:51.725Z,4.00
2018-04-11T15:59:20.585Z,2.67
2018-04-11T16:01:48.743Z,4.67
2018-04-11T16:04:16.850Z,2.53
2018-04-11T16:06:45.855Z,2.40
2018-04-11T16:09:14.750Z,3.77
2018-04-11T16:11:42.935Z,3.40
2018-04-11T16:14:11.045Z,3.60
2018-04-11T16:16:39.374Z,3.07
2018-04-11T16:19:08.269Z,3.10
2018-04-11T16:21:36.491Z,3.07
2018-04-11T16:24:04.646Z,3.33
2018-04-11T16:26:32.805Z,5.67
2018-04-11T16:29:00.910Z,6.40
2018-04-11T16:31:29.254Z,5.23
2018-04-11T16:33:57.487Z,5.67
2018-04-11T16:36:25.593Z,5.27
2018-04-11T16:38:53.852Z,5.43
2018-04-11T16:41:22.725Z,6.33
2018-04-11T16:43:51.042Z,5.63
2018-04-11T16:46:19.926Z,6.00
2018-04-11T16:48:48.051Z,6.40
2018-04-11T16:51:16.151Z,6.80
2018-04-11T16:53:45.118Z,6.33
2018-04-11T16:56:13.234Z,7.70
2018-04-11T16:58:43.036Z,8.23
2018-04-11T17:01:11.952Z,8.83
2018-04-11T17:03:40.097Z,7.73
2018-04-11T17:06:09.476Z,7.30
2018-04-11T17:08:37.699Z,8.90
2018-04-11T17:11:06.197Z,9.10
2018-04-11T17:13:34.330Z,9.20
2018-04-11T17:16:03.807Z,10.17
2018-04-11T17:18:32.104Z,11.93
2018-04-11T17:21:12.866Z,11.60
2018-04-11T17:23:52.884Z,10.27
2018-04-11T17:26:32.914Z,10.67
2018-04-11T17:29:12.735Z,10.60
2018-04-11T17:31:40.865Z,10.97
2018-04-11T17:34:08.978Z,11.90
2018-04-11T17:36:37.285Z,11.57
2018-04-11T17:39:05.605Z,10.87
2018-04-11T17:41:33.707Z,13.63
2018-04-11T17:44:01.921Z,14.07
2018-04-11T17:46:30.126Z,18.60
2018-04-11T17:48:58.404Z,16.80
2018-04-11T17:51:28.018Z,18.43
2018-04-11T17:53:56.158Z,17.77
2018-04-11T17:56:24.287Z,16.50
2018-04-11T17:58:52.427Z,20.33
2018-04-11T18:01:20.917Z,21.23
2018-04-11T18:03:49.173Z,18.97
2018-04-11T18:06:17.567Z,20.00
2018-04-11T18:08:45.809Z,21.43
2018-04-11T18:11:13.942Z,19.70
2018-04-11T18:13:42.816Z,20.80
2018-04-11T18:16:11.121Z,23.10
2018-04-11T18:18:39.548Z,25.00
2018-04-11T18:21:07.811Z,25.00
2018-04-11T18:23:35.983Z,26.03
2018-04-11T18:26:04.115Z,27.33
2018-04-11T18:28:32.259Z,26.17
2018-04-11T18:31:01.208Z,25.03
2018-04-11T18:33:29.993Z,28.47
2018-04-11T18:35:58.097Z,26.70
2018-04-11T18:38:26.302Z,29.03
2018-04-11T18:40:55.203Z,32.17
2018-04-11T18:43:24.105Z,27.80
2018-04-11T18:45:53.810Z,27.53
2018-04-11T18:48:21.997Z,30.43
2018-04-11T18:50:50.188Z,27.17
2018-04-11T18:53:18.363Z,28.57
2018-04-11T18:55:46.613Z,31.00
2018-04-11T18:58:14.742Z,31.63
2018-04-11T19:00:43.537Z,31.30
2018-04-11T19:03:12.439Z,29.10
2018-04-11T19:05:41.322Z,29.13
2018-04-11T19:08:09.462Z,30.20
2018-04-11T19:10:37.573Z,29.77
2018-04-11T19:13:06.863Z,30.27
2018-04-11T19:15:34.959Z,31.20
2018-04-11T19:18:03.852Z,31.23
2018-04-11T19:20:32.738Z,33.80
2018-04-11T19:23:01.721Z,33.53
2018-04-11T19:25:30.733Z,33.60
2018-04-11T19:27:59.715Z,32.27
2018-04-11T19:30:28.646Z,33.33
2018-04-11T19:32:56.770Z,35.00
2018-04-11T19:35:26.607Z,35.47
2018-04-11T19:37:54.901Z,36.13
2018-04-11T19:40:23.014Z,33.77
2018-04-11T19:42:51.183Z,37.93
2018-04-11T19:45:19.485Z,43.33
2018-04-11T19:47:49.118Z,41.17
2018-04-11T19:50:17.228Z,47.00
2018-04-11T19:52:45.526Z,43.73
2018-04-11T19:55:13.655Z,43.87
2018-04-11T19:57:41.856Z,41.40
2018-04-11T20:00:10.190Z,45.93
2018-04-11T20:02:38.377Z,48.37
2018-04-11T20:05:06.740Z,45.93
2018-04-11T20:07:35.898Z,46.50
2018-04-11T20:10:04.286Z,50.80
2018-04-11T20:12:33.351Z,47.13
2018-04-11T20:15:01.643Z,48.00
2018-04-11T20:17:29.830Z,50.13
2018-04-11T20:19:58.128Z,47.93
2018-04-11T20:22:26.526Z,51.13
2018-04-11T20:24:54.648Z,48.83
2018-04-11T20:27:22.856Z,50.70
2018-04-11T20:29:52.116Z,46.90
2018-04-11T20:32:20.242Z,55.37
2018-04-11T20:34:48.532Z,52.97
2018-04-11T20:37:16.859Z,54.60
2018-04-11T20:39:46.595Z,62.47
2018-04-11T20:42:15.525Z,63.73
2018-04-11T20:44:43.698Z,56.27
2018-04-11T20:47:12.083Z,58.17
2018-04-11T20:49:40.744Z,61.33
2018-04-11T20:52:08.953Z,58.03
2018-04-11T20:54:37.111Z,55.70
2018-04-11T20:57:05.245Z,64.57
2018-04-11T20:59:33.396Z,57.77
2018-04-11T21:02:01.609Z,60.17
2018-04-11T21:04:30.378Z,60.40
2018-04-11T21:06:59.295Z,56.37
2018-04-11T21:09:27.920Z,58.97
2018-04-11T21:11:56.101Z,60.27
2018-04-11T21:14:24.381Z,61.47
2018-04-11T21:16:52.559Z,60.77
2018-04-11T21:19:21.913Z,57.10
2018-04-11T21:21:50.173Z,59.77
2018-04-11T21:24:18.994Z,58.77
2018-04-11T21:26:47.192Z,65.43
2018-04-11T21:29:15.385Z,59.33
2018-04-11T21:31:43.509Z,55.60
2018-04-11T21:34:11.633Z,57.77
2018-04-11T21:36:39.773Z,60.97
2018-04-11T21:39:07.902Z,62.43
2018-04-11T21:41:36.031Z,63.40
2018-04-11T21:44:04.187Z,61.17
2018-04-11T21:46:32.306Z,63.40
2018-04-11T21:49:01.185Z,61.93
2018-04-11T21:51:30.108Z,66.07
2018-04-11T21:53:58.212Z,68.60
2018-04-11T21:56:26.345Z,68.07
2018-04-11T21:58:54.591Z,66.47
2018-04-11T22:01:23.487Z,70.07
2018-04-11T22:03:52.376Z,63.00
2018-04-11T22:06:20.534Z,62.40
2018-04-11T22:08:48.713Z,67.43
2018-04-11T22:11:16.871Z,73.83
2018-04-11T22:13:44.990Z,70.30
2018-04-11T22:16:13.096Z,68.67
2018-04-11T22:18:41.199Z,79.60
2018-04-11T22:21:09.405Z,78.47
2018-04-11T22:23:37.515Z,75.57
2018-04-11T22:26:05.655Z,74.90
2018-04-11T22:28:33.935Z,80.80
2018-04-11T22:31:02.072Z,74.20
2018-04-11T22:33:30.482Z,77.70
2018-04-11T22:35:58.617Z,83.27
2018-04-11T22:38:26.760Z,74.93
2018-04-11T22:40:55.864Z,72.13
2018-04-11T22:43:23.996Z,71.27
2018-04-11T22:45:52.858Z,80.50
2018-04-11T22:48:21.033Z,92.70
2018-04-11T22:50:49.162Z,88.03
2018-04-11T22:53:17.613Z,74.70
2018-04-11T22:55:45.840Z,88.13
2018-04-11T22:58:13.974Z,82.40
2018-04-11T23:00:42.523Z,84.40
2018-04-11T23:03:11.396Z,79.53
2018-04-11T23:05:39.551Z,80.63
2018-04-11T23:08:07.799Z,75.23
2018-04-11T23:10:36.064Z,87.43
2018-04-11T23:13:04.741Z,95.47
2018-04-11T23:15:33.607Z,105.30
2018-04-11T23:18:01.817Z,115.07
2018-04-11T23:20:30.127Z,93.20
2018-04-11T23:22:58.252Z,100.50
2018-04-11T23:25:27.201Z,106.13
2018-04-11T23:27:56.233Z,101.10
2018-04-11T23:30:25.138Z,112.77
2018-04-11T23:32:54.036Z,113.80
2018-04-11T23:35:22.401Z,107.53
2018-04-11T23:37:51.290Z,106.80
2018-04-11T23:40:20.182Z,98.37
2018-04-11T23:42:49.137Z,103.60
2018-04-11T23:45:18.783Z,98.40
2018-04-11T23:47:47.672Z,100.60
2018-04-11T23:50:16.579Z,103.10
2018-04-11T23:52:44.713Z,109.07
2018-04-11T23:55:12.827Z,104.60
2018-04-11T23:57:41.231Z,104.23
